sensor_id;sensor_type;location;lat;lon;timestamp;noise_LAeq;noise_LA_min;noise_LA_max;noise_LA01;noise_LA95
46749;Laerm;33775;47.992;11.864;2023-08-17T00:01:44;38.32;33.44;40.23;;
46749;Laerm;33775;47.992;11.864;2023-08-17T00:04:10;38.31;32.35;40.43;;
46749;Laerm;33775;47.992;11.864;2023-08-17T00:06:35;38.14;31.33;40.13;;
46749;Laerm;33775;47.992;11.864;2023-08-17T00:09:00;38.25;33.44;39.92;;
46749;Laerm;33775;47.992;11.864;2023-08-17T00:11:26;38.37;33.44;40.23;;
46749;Laerm;33775;47.992;11.864;2023-08-17T00:13:51;38.35;33.44;40.23;;
46749;Laerm;33775;47.992;11.864;2023-08-17T00:16:16;38.44;33.90;40.33;;
46749;Laerm;33775;47.992;11.864;2023-08-17T00:18:42;38.48;32.35;40.33;;
46749;Laerm;33775;47.992;11.864;2023-08-17T00:21:07;38.44;32.93;40.43;;
46749;Laerm;33775;47.992;11.864;2023-08-17T00:23:32;38.50;32.93;40.62;;
46749;Laerm;33775;47.992;11.864;2023-08-17T00:25:58;38.51;33.44;40.43;;
46749;Laerm;33775;47.992;11.864;2023-08-17T00:28:23;38.48;33.44;40.33;;
46749;Laerm;33775;47.992;11.864;2023-08-17T00:30:50;38.49;33.44;40.43;;
46749;Laerm;33775;47.992;11.864;2023-08-17T00:33:15;38.52;33.90;40.62;;
46749;Laerm;33775;47.992;11.864;2023-08-17T00:35:40;38.46;33.90;40.33;;
46749;Laerm;33775;47.992;11.864;2023-08-17T00:38:06;38.19;33.44;40.43;;
46749;Laerm;33775;47.992;11.864;2023-08-17T00:40:31;38.31;32.35;40.23;;
46749;Laerm;33775;47.992;11.864;2023-08-17T00:42:56;38.41;32.35;41.75;;
46749;Laerm;33775;47.992;11.864;2023-08-17T00:45:22;40.71;39.23;41.96;;
46749;Laerm;33775;47.992;11.864;2023-08-17T00:47:48;40.70;39.34;42.09;;
46749;Laerm;33775;47.992;11.864;2023-08-17T00:50:13;40.65;39.21;41.82;;
46749;Laerm;33775;47.992;11.864;2023-08-17T00:52:39;40.69;39.21;41.89;;
46749;Laerm;33775;47.992;11.864;2023-08-17T00:55:06;40.75;39.34;41.96;;
46749;Laerm;33775;47.992;11.864;2023-08-17T00:57:32;40.75;39.11;42.03;;
46749;Laerm;33775;47.992;11.864;2023-08-17T00:59:58;40.80;39.21;42.22;;
46749;Laerm;33775;47.992;11.864;2023-08-17T01:02:24;40.76;39.34;41.96;;
46749;Laerm;33775;47.992;11.864;2023-08-17T01:04:49;40.68;39.21;41.96;;
46749;Laerm;33775;47.992;11.864;2023-08-17T01:07:14;40.63;39.08;42.16;;
46749;Laerm;33775;47.992;11.864;2023-08-17T01:09:39;40.55;38.67;42.09;;
46749;Laerm;33775;47.992;11.864;2023-08-17T01:12:08;40.46;38.52;42.16;;
46749;Laerm;33775;47.992;11.864;2023-08-17T01:14:40;40.82;39.08;42.47;;
46749;Laerm;33775;47.992;11.864;2023-08-17T01:17:19;40.80;39.21;42.47;;
46749;Laerm;33775;47.992;11.864;2023-08-17T01:19:47;40.67;38.95;42.16;;
46749;Laerm;33775;47.992;11.864;2023-08-17T01:22:12;40.49;38.52;42.22;;
46749;Laerm;33775;47.992;11.864;2023-08-17T01:24:39;40.36;38.21;42.16;;
46749;Laerm;33775;47.992;11.864;2023-08-17T01:27:04;40.52;38.05;42.65;;
46749;Laerm;33775;47.992;11.864;2023-08-17T01:29:29;40.86;38.67;42.41;;
46749;Laerm;33775;47.992;11.864;2023-08-17T01:32:02;40.88;39.08;42.59;;
46749;Laerm;33775;47.992;11.864;2023-08-17T01:34:29;40.80;38.81;42.59;;
46749;Laerm;33775;47.992;11.864;2023-08-17T01:36:58;40.45;37.88;42.59;;
46749;Laerm;33775;47.992;11.864;2023-08-17T01:39:26;40.30;37.32;42.09;;
46749;Laerm;33775;47.992;11.864;2023-08-17T01:41:52;40.88;39.08;42.59;;
46749;Laerm;33775;47.992;11.864;2023-08-17T01:44:18;40.99;39.34;42.71;;
46749;Laerm;33775;47.992;11.864;2023-08-17T01:46:44;40.89;38.67;42.53;;
46749;Laerm;33775;47.992;11.864;2023-08-17T01:49:09;40.93;38.95;42.65;;
46749;Laerm;33775;47.992;11.864;2023-08-17T01:51:34;41.01;39.46;42.76;;
46749;Laerm;33775;47.992;11.864;2023-08-17T01:53:59;40.87;39.08;42.65;;
46749;Laerm;33775;47.992;11.864;2023-08-17T01:56:24;40.62;38.37;42.35;;
46749;Laerm;33775;47.992;11.864;2023-08-17T01:58:49;40.58;38.52;42.53;;
46749;Laerm;33775;47.992;11.864;2023-08-17T02:01:15;40.69;38.67;42.47;;
46749;Laerm;33775;47.992;11.864;2023-08-17T02:03:40;40.77;38.81;42.65;;
46749;Laerm;33775;47.992;11.864;2023-08-17T02:06:05;40.71;38.52;42.65;;
46749;Laerm;33775;47.992;11.864;2023-08-17T02:08:32;40.73;38.95;42.41;;
46749;Laerm;33775;47.992;11.864;2023-08-17T02:10:58;40.90;39.08;42.47;;
46749;Laerm;33775;47.992;11.864;2023-08-17T02:13:23;41.01;39.34;42.71;;
46749;Laerm;33775;47.992;11.864;2023-08-17T02:15:48;40.99;39.34;42.65;;
46749;Laerm;33775;47.992;11.864;2023-08-17T02:18:13;40.83;39.21;42.41;;
46749;Laerm;33775;47.992;11.864;2023-08-17T02:20:39;40.66;38.81;42.16;;
46749;Laerm;33775;47.992;11.864;2023-08-17T02:23:04;40.40;38.05;42.09;;
46749;Laerm;33775;47.992;11.864;2023-08-17T02:25:29;40.58;38.05;42.42;;
46749;Laerm;33775;47.992;11.864;2023-08-17T02:28:00;40.98;39.08;42.71;;
46749;Laerm;33775;47.992;11.864;2023-08-17T02:30:25;40.99;39.58;42.71;;
46749;Laerm;33775;47.992;11.864;2023-08-17T02:32:50;40.93;39.34;42.65;;
46749;Laerm;33775;47.992;11.864;2023-08-17T02:35:16;40.67;38.37;42.65;;
46749;Laerm;33775;47.992;11.864;2023-08-17T02:37:41;40.62;38.67;42.47;;
46749;Laerm;33775;47.992;11.864;2023-08-17T02:40:06;40.52;38.37;42.41;;
46749;Laerm;33775;47.992;11.864;2023-08-17T02:42:32;40.96;38.95;42.65;;
46749;Laerm;33775;47.992;11.864;2023-08-17T02:44:57;41.04;39.46;42.53;;
46749;Laerm;33775;47.992;11.864;2023-08-17T02:47:22;40.97;39.46;42.53;;
46749;Laerm;33775;47.992;11.864;2023-08-17T02:49:47;40.96;39.21;42.93;;
46749;Laerm;33775;47.992;11.864;2023-08-17T02:52:14;40.93;39.08;42.53;;
46749;Laerm;33775;47.992;11.864;2023-08-17T02:54:39;40.75;38.67;42.59;;
46749;Laerm;33775;47.992;11.864;2023-08-17T02:57:04;40.64;38.37;42.42;;
46749;Laerm;33775;47.992;11.864;2023-08-17T02:59:29;40.72;38.95;42.65;;
46749;Laerm;33775;47.992;11.864;2023-08-17T03:01:55;40.68;38.37;42.35;;
46749;Laerm;33775;47.992;11.864;2023-08-17T03:04:21;40.73;38.95;42.47;;
46749;Laerm;33775;47.992;11.864;2023-08-17T03:06:46;40.95;38.81;42.65;;
46749;Laerm;33775;47.992;11.864;2023-08-17T03:09:11;41.05;39.46;42.82;;
46749;Laerm;33775;47.992;11.864;2023-08-17T03:11:36;41.00;39.46;42.76;;
46749;Laerm;33775;47.992;11.864;2023-08-17T03:14:01;40.95;39.46;42.47;;
46749;Laerm;33775;47.992;11.864;2023-08-17T03:16:27;40.92;39.08;42.41;;
46749;Laerm;33775;47.992;11.864;2023-08-17T03:18:54;40.76;39.08;42.35;;
46749;Laerm;33775;47.992;11.864;2023-08-17T03:21:20;40.52;38.52;42.59;;
46749;Laerm;33775;47.992;11.864;2023-08-17T03:23:45;40.32;38.21;42.16;;
46749;Laerm;33775;47.992;11.864;2023-08-17T03:26:10;40.44;38.05;42.22;;
46749;Laerm;33775;47.992;11.864;2023-08-17T03:28:36;40.77;38.67;42.47;;
46749;Laerm;33775;47.992;11.864;2023-08-17T03:31:01;40.83;39.08;42.76;;
46749;Laerm;33775;47.992;11.864;2023-08-17T03:33:27;40.84;38.52;42.76;;
46749;Laerm;33775;47.992;11.864;2023-08-17T03:35:52;40.75;38.95;42.41;;
46749;Laerm;33775;47.992;11.864;2023-08-17T03:38:17;40.72;38.81;42.53;;
46749;Laerm;33775;47.992;11.864;2023-08-17T03:40:42;40.56;38.21;42.47;;
46749;Laerm;33775;47.992;11.864;2023-08-17T03:43:08;40.21;37.88;42.09;;
46749;Laerm;33775;47.992;11.864;2023-08-17T03:45:33;40.20;38.21;41.96;;
46749;Laerm;33775;47.992;11.864;2023-08-17T03:47:58;40.39;38.18;42.41;;
46749;Laerm;33775;47.992;11.864;2023-08-17T03:50:25;40.68;38.81;42.59;;
46749;Laerm;33775;47.992;11.864;2023-08-17T03:52:51;41.03;39.46;42.71;;
46749;Laerm;33775;47.992;11.864;2023-08-17T03:55:16;40.99;39.46;42.71;;
46749;Laerm;33775;47.992;11.864;2023-08-17T03:57:41;40.95;38.81;42.98;;
46749;Laerm;33775;47.992;11.864;2023-08-17T04:00:06;41.00;39.34;42.71;;
46749;Laerm;33775;47.992;11.864;2023-08-17T04:02:32;40.88;39.21;42.59;;
46749;Laerm;33775;47.992;11.864;2023-08-17T04:04:57;40.81;39.08;42.53;;
46749;Laerm;33775;47.992;11.864;2023-08-17T04:07:22;40.64;38.37;42.53;;
46749;Laerm;33775;47.992;11.864;2023-08-17T04:09:48;40.49;38.05;42.16;;
46749;Laerm;33775;47.992;11.864;2023-08-17T04:12:14;40.86;39.11;42.93;;
46749;Laerm;33775;47.992;11.864;2023-08-17T04:14:39;40.98;39.21;42.82;;
46749;Laerm;33775;47.992;11.864;2023-08-17T04:17:04;41.11;39.34;43.14;;
46749;Laerm;33775;47.992;11.864;2023-08-17T04:19:30;41.11;39.46;42.76;;
46749;Laerm;33775;47.992;11.864;2023-08-17T04:21:55;41.09;39.46;42.59;;
46749;Laerm;33775;47.992;11.864;2023-08-17T04:24:20;41.07;39.57;42.53;;
46749;Laerm;33775;47.992;11.864;2023-08-17T04:26:45;41.03;39.46;42.59;;
46749;Laerm;33775;47.992;11.864;2023-08-17T04:29:10;41.02;39.46;42.98;;
46749;Laerm;33775;47.992;11.864;2023-08-17T04:31:37;40.97;39.58;42.47;;
46749;Laerm;33775;47.992;11.864;2023-08-17T04:34:02;40.94;39.46;42.82;;
46749;Laerm;33775;47.992;11.864;2023-08-17T04:36:27;40.95;39.08;42.82;;
46749;Laerm;33775;47.992;11.864;2023-08-17T04:38:52;40.96;39.34;42.47;;
46749;Laerm;33775;47.992;11.864;2023-08-17T04:41:18;40.92;39.34;42.53;;
46749;Laerm;33775;47.992;11.864;2023-08-17T04:43:43;40.76;39.21;42.41;;
46749;Laerm;33775;47.992;11.864;2023-08-17T04:46:08;40.86;38.81;42.53;;
46749;Laerm;33775;47.992;11.864;2023-08-17T04:48:33;40.93;39.34;42.98;;
46749;Laerm;33775;47.992;11.864;2023-08-17T04:50:58;40.87;39.21;42.88;;
46749;Laerm;33775;47.992;11.864;2023-08-17T04:53:24;40.72;38.81;42.36;;
46749;Laerm;33775;47.992;11.864;2023-08-17T04:55:49;40.86;39.08;42.71;;
46749;Laerm;33775;47.992;11.864;2023-08-17T04:58:14;41.04;39.46;42.93;;
46749;Laerm;33775;47.992;11.864;2023-08-17T05:00:39;40.96;39.34;42.53;;
46749;Laerm;33775;47.992;11.864;2023-08-17T05:03:04;40.73;39.34;42.22;;
46749;Laerm;33775;47.992;11.864;2023-08-17T05:05:30;40.67;39.46;42.03;;
46749;Laerm;33775;47.992;11.864;2023-08-17T05:07:55;40.74;39.46;41.82;;
46749;Laerm;33775;47.992;11.864;2023-08-17T05:10:20;40.80;39.23;42.16;;
46749;Laerm;33775;47.992;11.864;2023-08-17T05:12:45;40.84;39.46;42.29;;
46749;Laerm;33775;47.992;11.864;2023-08-17T05:15:11;40.87;39.34;42.35;;
46749;Laerm;33775;47.992;11.864;2023-08-17T05:17:37;40.91;39.46;42.47;;
46749;Laerm;33775;47.992;11.864;2023-08-17T05:20:02;40.99;39.46;42.47;;
46749;Laerm;33775;47.992;11.864;2023-08-17T05:22:29;40.95;39.34;42.59;;
46749;Laerm;33775;47.992;11.864;2023-08-17T05:24:54;40.93;39.34;42.53;;
46749;Laerm;33775;47.992;11.864;2023-08-17T05:27:19;40.84;39.46;42.16;;
46749;Laerm;33775;47.992;11.864;2023-08-17T05:29:44;40.67;39.21;41.89;;
46749;Laerm;33775;47.992;11.864;2023-08-17T05:32:10;40.61;39.08;41.75;;
46749;Laerm;33775;47.992;11.864;2023-08-17T05:34:35;40.62;39.34;41.89;;
46749;Laerm;33775;47.992;11.864;2023-08-17T05:37:00;40.39;38.95;41.68;;
46749;Laerm;33775;47.992;11.864;2023-08-17T05:39:25;39.99;38.21;41.22;;
46749;Laerm;33775;47.992;11.864;2023-08-17T05:41:50;39.74;38.05;40.98;;
46749;Laerm;33775;47.992;11.864;2023-08-17T05:44:15;39.77;38.21;41.06;;
46749;Laerm;33775;47.992;11.864;2023-08-17T05:46:42;39.67;38.05;40.98;;
46749;Laerm;33775;47.992;11.864;2023-08-17T05:49:07;39.21;36.91;40.80;;
46749;Laerm;33775;47.992;11.864;2023-08-17T05:51:32;37.91;32.93;44.19;;
46749;Laerm;33775;47.992;11.864;2023-08-17T05:53:58;37.18;32.93;51.44;;
46749;Laerm;33775;47.992;11.864;2023-08-17T05:56:23;37.09;31.68;39.46;;
46749;Laerm;33775;47.992;11.864;2023-08-17T05:58:48;37.07;32.35;39.58;;
46749;Laerm;33775;47.992;11.864;2023-08-17T06:01:13;37.07;29.92;39.58;;
46749;Laerm;33775;47.992;11.864;2023-08-17T06:03:39;37.10;32.93;39.58;;
46749;Laerm;33775;47.992;11.864;2023-08-17T06:06:04;37.06;31.68;39.70;;
46749;Laerm;33775;47.992;11.864;2023-08-17T06:08:30;37.04;32.35;39.81;;
46749;Laerm;33775;47.992;11.864;2023-08-17T06:10:55;37.09;31.68;40.13;;
46749;Laerm;33775;47.992;11.864;2023-08-17T06:13:21;37.19;31.68;39.58;;
46749;Laerm;33775;47.992;11.864;2023-08-17T06:15:46;37.18;32.35;39.58;;
46749;Laerm;33775;47.992;11.864;2023-08-17T06:18:11;37.22;32.93;39.46;;
46749;Laerm;33775;47.992;11.864;2023-08-17T06:20:36;37.42;31.68;39.92;;
46749;Laerm;33775;47.992;11.864;2023-08-17T06:23:01;37.66;33.90;39.58;;
46749;Laerm;33775;47.992;11.864;2023-08-17T06:25:27;37.63;33.90;39.70;;
46749;Laerm;33775;47.992;11.864;2023-08-17T06:27:52;37.65;30.89;39.70;;
46749;Laerm;33775;47.992;11.864;2023-08-17T06:30:17;37.49;32.93;39.46;;
46749;Laerm;33775;47.992;11.864;2023-08-17T06:32:43;37.26;32.93;39.46;;
46749;Laerm;33775;47.992;11.864;2023-08-17T06:35:08;37.35;31.68;39.92;;
46749;Laerm;33775;47.992;11.864;2023-08-17T06:37:33;37.28;32.93;39.46;;
46749;Laerm;33775;47.992;11.864;2023-08-17T06:39:58;37.14;32.93;39.81;;
46749;Laerm;33775;47.992;11.864;2023-08-17T06:42:23;37.09;32.35;40.03;;
46749;Laerm;33775;47.992;11.864;2023-08-17T06:44:49;37.07;33.44;39.81;;
46749;Laerm;33775;47.992;11.864;2023-08-17T06:47:14;37.13;32.93;40.03;;
46749;Laerm;33775;47.992;11.864;2023-08-17T06:49:39;37.21;32.93;39.81;;
46749;Laerm;33775;47.992;11.864;2023-08-17T06:52:05;37.15;31.68;39.58;;
46749;Laerm;33775;47.992;11.864;2023-08-17T06:54:30;37.17;33.44;39.92;;
46749;Laerm;33775;47.992;11.864;2023-08-17T06:56:57;37.15;32.93;39.81;;
46749;Laerm;33775;47.992;11.864;2023-08-17T06:59:22;37.18;32.35;39.81;;
46749;Laerm;33775;47.992;11.864;2023-08-17T07:01:47;37.40;32.35;40.23;;
46749;Laerm;33775;47.992;11.864;2023-08-17T07:04:12;37.45;32.93;40.33;;
46749;Laerm;33775;47.992;11.864;2023-08-17T07:06:37;37.27;32.35;39.92;;
46749;Laerm;33775;47.992;11.864;2023-08-17T07:09:03;37.25;32.93;40.13;;
46749;Laerm;33775;47.992;11.864;2023-08-17T07:11:30;37.32;33.44;40.23;;
46749;Laerm;33775;47.992;11.864;2023-08-17T07:13:55;37.42;33.44;40.33;;
46749;Laerm;33775;47.992;11.864;2023-08-17T07:16:20;37.49;33.44;40.33;;
46749;Laerm;33775;47.992;11.864;2023-08-17T07:18:45;37.52;33.90;40.43;;
46749;Laerm;33775;47.992;11.864;2023-08-17T07:21:10;37.56;31.68;40.23;;
46749;Laerm;33775;47.992;11.864;2023-08-17T07:23:35;37.57;33.44;40.33;;
46749;Laerm;33775;47.992;11.864;2023-08-17T07:26:01;37.56;33.44;40.23;;
46749;Laerm;33775;47.992;11.864;2023-08-17T07:28:26;37.56;32.93;40.13;;
46749;Laerm;33775;47.992;11.864;2023-08-17T07:30:51;37.58;33.44;40.33;;
46749;Laerm;33775;47.992;11.864;2023-08-17T07:33:16;37.60;31.68;40.33;;
46749;Laerm;33775;47.992;11.864;2023-08-17T07:35:41;37.59;33.90;40.13;;
46749;Laerm;33775;47.992;11.864;2023-08-17T07:38:06;37.57;32.93;40.33;;
46749;Laerm;33775;47.992;11.864;2023-08-17T07:40:32;37.57;32.93;40.62;;
46749;Laerm;33775;47.992;11.864;2023-08-17T07:42:57;37.55;32.35;40.23;;
46749;Laerm;33775;47.992;11.864;2023-08-17T07:45:22;37.55;32.35;40.80;;
46749;Laerm;33775;47.992;11.864;2023-08-17T07:47:47;37.56;32.35;40.33;;
46749;Laerm;33775;47.992;11.864;2023-08-17T07:50:12;37.54;31.68;40.13;;
46749;Laerm;33775;47.992;11.864;2023-08-17T07:52:37;37.53;32.93;40.23;;
46749;Laerm;33775;47.992;11.864;2023-08-17T07:55:03;37.54;33.44;40.53;;
46749;Laerm;33775;47.992;11.864;2023-08-17T07:57:28;37.56;33.44;40.03;;
46749;Laerm;33775;47.992;11.864;2023-08-17T07:59:53;37.52;32.00;40.13;;
46749;Laerm;33775;47.992;11.864;2023-08-17T08:02:19;37.55;32.35;40.33;;
46749;Laerm;33775;47.992;11.864;2023-08-17T08:04:44;37.50;33.44;40.43;;
46749;Laerm;33775;47.992;11.864;2023-08-17T08:07:09;37.52;32.35;40.43;;
46749;Laerm;33775;47.992;11.864;2023-08-17T08:09:36;37.53;32.93;40.23;;
46749;Laerm;33775;47.992;11.864;2023-08-17T08:12:01;37.50;32.35;40.23;;
46749;Laerm;33775;47.992;11.864;2023-08-17T08:14:27;37.50;32.35;40.13;;
46749;Laerm;33775;47.992;11.864;2023-08-17T08:16:52;37.47;30.89;40.13;;
46749;Laerm;33775;47.992;11.864;2023-08-17T08:19:17;37.49;33.44;40.71;;
46749;Laerm;33775;47.992;11.864;2023-08-17T08:21:42;37.50;33.09;40.71;;
46749;Laerm;33775;47.992;11.864;2023-08-17T08:24:07;37.49;32.93;40.23;;
46749;Laerm;33775;47.992;11.864;2023-08-17T08:26:33;37.48;32.93;40.03;;
46749;Laerm;33775;47.992;11.864;2023-08-17T08:28:58;37.52;32.35;40.33;;
46749;Laerm;33775;47.992;11.864;2023-08-17T08:31:23;37.48;33.90;40.13;;
46749;Laerm;33775;47.992;11.864;2023-08-17T08:33:48;37.48;32.93;40.03;;
46749;Laerm;33775;47.992;11.864;2023-08-17T08:36:13;37.50;32.35;40.53;;
46749;Laerm;33775;47.992;11.864;2023-08-17T08:38:38;41.23;33.44;75.01;;
46749;Laerm;33775;47.992;11.864;2023-08-17T08:41:04;37.46;33.44;40.23;;
46749;Laerm;33775;47.992;11.864;2023-08-17T08:43:30;37.48;33.44;40.33;;
46749;Laerm;33775;47.992;11.864;2023-08-17T08:45:55;37.50;32.93;40.03;;
46749;Laerm;33775;47.992;11.864;2023-08-17T08:48:22;37.46;33.44;40.13;;
46749;Laerm;33775;47.992;11.864;2023-08-17T08:50:48;37.44;31.68;40.23;;
46749;Laerm;33775;47.992;11.864;2023-08-17T08:53:15;37.43;33.44;40.03;;
46749;Laerm;33775;47.992;11.864;2023-08-17T08:55:45;37.44;32.35;40.33;;
46749;Laerm;33775;47.992;11.864;2023-08-17T08:58:12;37.40;30.89;40.13;;
46749;Laerm;33775;47.992;11.864;2023-08-17T09:00:37;37.43;32.58;40.13;;
46749;Laerm;33775;47.992;11.864;2023-08-17T09:03:03;37.41;32.35;40.33;;
46749;Laerm;33775;47.992;11.864;2023-08-17T09:05:30;37.43;32.35;40.23;;
46749;Laerm;33775;47.992;11.864;2023-08-17T09:07:56;37.46;32.35;40.53;;
46749;Laerm;33775;47.992;11.864;2023-08-17T09:10:22;37.45;32.35;40.33;;
46749;Laerm;33775;47.992;11.864;2023-08-17T09:12:47;37.39;32.35;40.23;;
46749;Laerm;33775;47.992;11.864;2023-08-17T09:15:12;37.41;32.35;40.23;;
46749;Laerm;33775;47.992;11.864;2023-08-17T09:17:38;37.42;32.35;40.03;;
46749;Laerm;33775;47.992;11.864;2023-08-17T09:20:03;37.40;32.35;40.53;;
46749;Laerm;33775;47.992;11.864;2023-08-17T09:22:38;37.40;32.93;40.13;;
46749;Laerm;33775;47.992;11.864;2023-08-17T09:25:04;37.39;32.35;40.13;;
46749;Laerm;33775;47.992;11.864;2023-08-17T09:27:31;44.91;29.92;75.16;;
46749;Laerm;33775;47.992;11.864;2023-08-17T09:30:03;37.38;32.93;40.43;;
46749;Laerm;33775;47.992;11.864;2023-08-17T09:32:30;37.35;32.00;40.13;;
46749;Laerm;33775;47.992;11.864;2023-08-17T09:34:56;37.36;32.93;40.62;;
46749;Laerm;33775;47.992;11.864;2023-08-17T09:37:21;37.34;32.35;40.13;;
46749;Laerm;33775;47.992;11.864;2023-08-17T09:39:46;37.33;31.68;40.33;;
46749;Laerm;33775;47.992;11.864;2023-08-17T09:42:12;37.30;32.35;39.81;;
46749;Laerm;33775;47.992;11.864;2023-08-17T09:44:37;37.33;31.68;40.23;;
46749;Laerm;33775;47.992;11.864;2023-08-17T09:47:02;37.34;32.35;40.03;;
46749;Laerm;33775;47.992;11.864;2023-08-17T09:49:30;37.32;32.35;40.71;;
46749;Laerm;33775;47.992;11.864;2023-08-17T09:51:58;37.32;32.35;40.53;;
46749;Laerm;33775;47.992;11.864;2023-08-17T09:54:24;37.28;32.35;40.33;;
46749;Laerm;33775;47.992;11.864;2023-08-17T09:56:52;37.35;31.68;40.13;;
46749;Laerm;33775;47.992;11.864;2023-08-17T09:59:17;43.76;23.90;75.83;;
46749;Laerm;33775;47.992;11.864;2023-08-17T10:01:42;37.31;30.54;40.53;;
46749;Laerm;33775;47.992;11.864;2023-08-17T10:04:08;37.29;30.89;40.23;;
46749;Laerm;33775;47.992;11.864;2023-08-17T10:06:34;37.29;31.68;40.13;;
46749;Laerm;33775;47.992;11.864;2023-08-17T10:09:01;37.30;31.68;40.13;;
46749;Laerm;33775;47.992;11.864;2023-08-17T10:11:26;37.32;32.35;40.23;;
46749;Laerm;33775;47.992;11.864;2023-08-17T10:13:56;37.30;31.68;40.03;;
46749;Laerm;33775;47.992;11.864;2023-08-17T10:16:24;37.28;30.89;40.03;;
46749;Laerm;33775;47.992;11.864;2023-08-17T10:18:55;37.30;31.68;40.03;;
46749;Laerm;33775;47.992;11.864;2023-08-17T10:21:32;37.30;31.68;40.53;;
46749;Laerm;33775;47.992;11.864;2023-08-17T10:24:00;45.43;26.91;74.58;;
46749;Laerm;33775;47.992;11.864;2023-08-17T10:26:27;44.98;29.92;73.94;;
46749;Laerm;33775;47.992;11.864;2023-08-17T10:28:53;45.44;23.90;75.14;;
46749;Laerm;33775;47.992;11.864;2023-08-17T10:31:20;37.27;30.89;40.23;;
46749;Laerm;33775;47.992;11.864;2023-08-17T10:33:46;37.29;32.93;40.45;;
46749;Laerm;33775;47.992;11.864;2023-08-17T10:36:12;37.31;29.92;40.13;;
46749;Laerm;33775;47.992;11.864;2023-08-17T10:38:38;37.25;31.68;40.03;;
46749;Laerm;33775;47.992;11.864;2023-08-17T10:41:13;37.32;31.68;40.13;;
46749;Laerm;33775;47.992;11.864;2023-08-17T10:43:57;37.33;31.68;40.33;;
46749;Laerm;33775;47.992;11.864;2023-08-17T10:46:33;37.19;31.68;40.33;;
46749;Laerm;33775;47.992;11.864;2023-08-17T10:49:03;37.26;32.35;40.03;;
46749;Laerm;33775;47.992;11.864;2023-08-17T10:51:29;37.28;31.68;40.53;;
46749;Laerm;33775;47.992;11.864;2023-08-17T10:53:54;37.31;32.35;40.43;;
46749;Laerm;33775;47.992;11.864;2023-08-17T10:56:24;44.81;29.92;77.66;;
46749;Laerm;33775;47.992;11.864;2023-08-17T10:58:51;37.37;31.68;44.03;;
46749;Laerm;33775;47.992;11.864;2023-08-17T11:01:30;37.27;32.35;40.62;;
46749;Laerm;33775;47.992;11.864;2023-08-17T11:04:08;37.31;31.68;40.23;;
46749;Laerm;33775;47.992;11.864;2023-08-17T11:06:34;37.27;31.68;40.13;;
46749;Laerm;33775;47.992;11.864;2023-08-17T11:09:00;37.28;32.35;43.24;;
46749;Laerm;33775;47.992;11.864;2023-08-17T11:11:31;37.27;31.68;40.43;;
46749;Laerm;33775;47.992;11.864;2023-08-17T11:13:56;37.30;31.68;40.33;;
46749;Laerm;33775;47.992;11.864;2023-08-17T11:16:22;37.33;30.89;40.43;;
46749;Laerm;33775;47.992;11.864;2023-08-17T11:18:48;37.30;31.68;40.71;;
46749;Laerm;33775;47.992;11.864;2023-08-17T11:21:14;37.27;31.68;40.53;;
46749;Laerm;33775;47.992;11.864;2023-08-17T11:23:40;37.26;29.92;40.33;;
46749;Laerm;33775;47.992;11.864;2023-08-17T11:26:07;37.24;31.68;40.23;;
46749;Laerm;33775;47.992;11.864;2023-08-17T11:28:33;37.30;29.92;40.62;;
46749;Laerm;33775;47.992;11.864;2023-08-17T11:31:05;37.22;31.68;40.13;;
46749;Laerm;33775;47.992;11.864;2023-08-17T11:33:31;37.27;30.89;40.03;;
46749;Laerm;33775;47.992;11.864;2023-08-17T11:35:57;37.18;31.68;40.43;;
46749;Laerm;33775;47.992;11.864;2023-08-17T11:38:22;37.29;31.68;40.23;;
46749;Laerm;33775;47.992;11.864;2023-08-17T11:40:48;37.32;32.35;40.23;;
46749;Laerm;33775;47.992;11.864;2023-08-17T11:43:13;37.25;29.92;41.68;;
46749;Laerm;33775;47.992;11.864;2023-08-17T11:45:39;37.20;31.68;40.23;;
46749;Laerm;33775;47.992;11.864;2023-08-17T11:48:04;37.19;29.92;40.03;;
46749;Laerm;33775;47.992;11.864;2023-08-17T11:50:29;37.21;30.89;40.53;;
46749;Laerm;33775;47.992;11.864;2023-08-17T11:52:54;37.26;31.68;40.53;;
46749;Laerm;33775;47.992;11.864;2023-08-17T11:55:20;37.16;30.89;40.23;;
46749;Laerm;33775;47.992;11.864;2023-08-17T11:57:46;37.15;32.35;40.03;;
46749;Laerm;33775;47.992;11.864;2023-08-17T12:00:16;37.18;31.68;40.13;;
46749;Laerm;33775;47.992;11.864;2023-08-17T12:02:42;37.12;31.68;41.53;;
46749;Laerm;33775;47.992;11.864;2023-08-17T12:05:08;37.09;30.89;40.13;;
46749;Laerm;33775;47.992;11.864;2023-08-17T12:07:34;36.95;29.92;39.92;;
46749;Laerm;33775;47.992;11.864;2023-08-17T12:10:00;37.00;31.68;39.78;;
46749;Laerm;33775;47.992;11.864;2023-08-17T12:12:27;36.99;28.67;40.13;;
46749;Laerm;33775;47.992;11.864;2023-08-17T12:14:53;37.09;31.68;40.03;;
46749;Laerm;33775;47.992;11.864;2023-08-17T12:17:19;37.14;31.68;40.13;;
46749;Laerm;33775;47.992;11.864;2023-08-17T12:19:44;37.17;32.35;40.03;;
46749;Laerm;33775;47.992;11.864;2023-08-17T12:22:13;37.17;29.92;40.54;;
46749;Laerm;33775;47.992;11.864;2023-08-17T12:24:38;37.11;30.89;40.03;;
46749;Laerm;33775;47.992;11.864;2023-08-17T12:27:04;37.16;30.89;40.33;;
46749;Laerm;33775;47.992;11.864;2023-08-17T12:29:29;37.19;32.00;40.23;;
46749;Laerm;33775;47.992;11.864;2023-08-17T12:31:56;37.19;30.89;40.43;;
46749;Laerm;33775;47.992;11.864;2023-08-17T12:34:22;37.18;32.35;40.62;;
46749;Laerm;33775;47.992;11.864;2023-08-17T12:36:48;37.18;32.35;40.80;;
46749;Laerm;33775;47.992;11.864;2023-08-17T12:39:13;37.09;30.89;40.43;;
46749;Laerm;33775;47.992;11.864;2023-08-17T12:41:39;37.07;31.68;40.13;;
46749;Laerm;33775;47.992;11.864;2023-08-17T12:44:04;37.04;31.68;39.70;;
46749;Laerm;33775;47.992;11.864;2023-08-17T12:46:29;37.17;29.92;40.33;;
46749;Laerm;33775;47.992;11.864;2023-08-17T12:48:57;37.13;29.92;39.92;;
46749;Laerm;33775;47.992;11.864;2023-08-17T12:51:22;37.19;32.00;40.13;;
46749;Laerm;33775;47.992;11.864;2023-08-17T12:53:48;37.21;30.89;40.23;;
46749;Laerm;33775;47.992;11.864;2023-08-17T12:56:13;37.16;32.35;40.27;;
46749;Laerm;33775;47.992;11.864;2023-08-17T12:58:38;37.15;30.89;40.03;;
46749;Laerm;33775;47.992;11.864;2023-08-17T13:01:03;37.17;31.68;40.53;;
46749;Laerm;33775;47.992;11.864;2023-08-17T13:03:28;37.17;30.89;39.92;;
46749;Laerm;33775;47.992;11.864;2023-08-17T13:05:54;37.19;32.35;42.53;;
46749;Laerm;33775;47.992;11.864;2023-08-17T13:08:19;37.22;26.91;40.23;;
46749;Laerm;33775;47.992;11.864;2023-08-17T13:10:44;37.22;31.68;40.53;;
46749;Laerm;33775;47.992;11.864;2023-08-17T13:13:10;37.18;30.89;40.23;;
46749;Laerm;33775;47.992;11.864;2023-08-17T13:15:35;37.15;29.92;40.43;;
46749;Laerm;33775;47.992;11.864;2023-08-17T13:18:01;37.18;30.89;40.13;;
46749;Laerm;33775;47.992;11.864;2023-08-17T13:20:26;37.17;30.89;42.71;;
46749;Laerm;33775;47.992;11.864;2023-08-17T13:22:51;37.09;31.68;40.03;;
46749;Laerm;33775;47.992;11.864;2023-08-17T13:25:17;37.12;30.89;40.53;;